createdAt,value
2023-01-26T00:00:44.538Z,99179.09
2023-01-26T00:01:47.306Z,99170.47
2023-01-26T00:02:50.395Z,99174.78
2023-01-26T00:03:53.165Z,99189.38
2023-01-26T00:04:54.920Z,99183.44
2023-01-26T00:05:57.655Z,99179.97
2023-01-26T00:06:59.614Z,99172.25
2023-01-26T00:08:02.318Z,99172.25
2023-01-26T00:09:04.331Z,99171.38
2023-01-26T00:10:07.478Z,99167.91
2023-01-26T00:11:11.417Z,99168.81
2023-01-26T00:12:14.477Z,99167.09
2023-01-26T00:13:17.957Z,99169.81
2023-01-26T00:14:20.715Z,99169.88
2023-01-26T00:15:22.599Z,99170.81
2023-01-26T00:16:26.533Z,99167.50
2023-01-26T00:17:28.417Z,99167.53
2023-01-26T00:18:32.808Z,99169.22
2023-01-26T00:19:34.665Z,99164.91
2023-01-26T00:20:37.497Z,99163.22
2023-01-26T00:21:39.265Z,99162.38
2023-01-26T00:23:00.895Z,99165.00
2023-01-26T00:24:04.469Z,99161.63
2023-01-26T00:25:07.855Z,99155.56
2023-01-26T00:26:11.126Z,99155.63
2023-01-26T00:27:15.377Z,99159.97
2023-01-26T00:28:17.262Z,99164.25
2023-01-26T00:29:20.023Z,99154.84
2023-01-26T00:30:21.833Z,99152.22
2023-01-26T00:31:27.238Z,99147.91
2023-01-26T00:32:29.075Z,99151.41
2023-01-26T00:33:33.727Z,99146.25
2023-01-26T00:34:35.580Z,99151.41
2023-01-26T00:35:39.143Z,99142.84
2023-01-26T00:36:41.004Z,99143.72
2023-01-26T00:37:43.875Z,99150.56
2023-01-26T00:38:46.477Z,99152.25
2023-01-26T00:39:49.243Z,99150.59
2023-01-26T00:40:51.799Z,99143.72
2023-01-26T00:42:08.573Z,99148.84
2023-01-26T00:43:11.354Z,99143.72
2023-01-26T00:44:13.255Z,99142.88
2023-01-26T00:45:16.191Z,99140.31
2023-01-26T00:46:19.775Z,99140.28
2023-01-26T00:47:22.519Z,99145.34
2023-01-26T00:48:25.138Z,99141.81
2023-01-26T00:49:29.280Z,99140.88
2023-01-26T00:50:31.313Z,99141.78
2023-01-26T00:51:34.116Z,99143.44
2023-01-26T00:52:35.882Z,99137.38
2023-01-26T00:53:41.140Z,99139.97
2023-01-26T00:54:44.100Z,99143.31
2023-01-26T00:55:45.974Z,99140.72
2023-01-26T00:56:48.737Z,99138.22
2023-01-26T00:57:52.032Z,99140.72
2023-01-26T00:58:53.864Z,99134.66
2023-01-26T00:59:56.834Z,99135.56
2023-01-26T01:01:00.011Z,99132.16
2023-01-26T01:02:03.247Z,99132.16
2023-01-26T01:03:05.788Z,99132.97
2023-01-26T01:04:08.610Z,99132.97
2023-01-26T01:05:12.153Z,99137.22
2023-01-26T01:06:16.302Z,99135.59
2023-01-26T01:07:37.830Z,99136.50
2023-01-26T01:08:41.219Z,99132.25
2023-01-26T01:09:44.001Z,99130.59
2023-01-26T01:10:46.537Z,99130.59
2023-01-26T01:11:49.442Z,99131.47
2023-01-26T01:12:51.276Z,99128.06
2023-01-26T01:13:54.176Z,99125.44
2023-01-26T01:14:55.948Z,99133.16
2023-01-26T01:16:00.131Z,99127.19
2023-01-26T01:17:03.310Z,99127.09
2023-01-26T01:18:06.206Z,99127.19
2023-01-26T01:19:08.248Z,99127.19
2023-01-26T01:20:13.953Z,99125.44
2023-01-26T01:21:17.827Z,99121.19
2023-01-26T01:22:20.638Z,99113.47
2023-01-26T01:23:22.899Z,99123.78
2023-01-26T01:24:25.880Z,99122.06
2023-01-26T01:25:28.191Z,99116.09
2023-01-26T01:26:31.089Z,99113.53
2023-01-26T01:27:32.914Z,99119.50
2023-01-26T01:28:36.889Z,99115.16
2023-01-26T01:29:39.135Z,99119.50
2023-01-26T01:30:41.936Z,99123.81
2023-01-26T01:31:44.178Z,99115.31
2023-01-26T01:32:49.657Z,99113.69
2023-01-26T01:33:52.474Z,99104.31
2023-01-26T01:34:55.198Z,99112.03
2023-01-26T01:35:59.588Z,99105.22
2023-01-26T01:37:02.383Z,99111.19
2023-01-26T01:38:04.250Z,99104.31
2023-01-26T01:39:07.073Z,99098.28
2023-01-26T01:40:12.304Z,99100.84
2023-01-26T01:41:16.208Z,99097.44
2023-01-26T01:42:18.150Z,99098.34
2023-01-26T01:43:20.943Z,99095.84
2023-01-26T01:44:24.086Z,99101.88
2023-01-26T01:45:42.672Z,99097.56
2023-01-26T01:46:47.866Z,99104.47
2023-01-26T01:47:51.298Z,99089.03
2023-01-26T01:48:58.206Z,99095.84
2023-01-26T01:50:04.928Z,99097.56
2023-01-26T01:51:12.648Z,99097.44
2023-01-26T01:52:17.582Z,99098.28
2023-01-26T01:53:24.952Z,99087.94
2023-01-26T01:54:29.872Z,99093.78
2023-01-26T01:55:32.961Z,99092.91
2023-01-26T01:56:36.859Z,99089.44
2023-01-26T01:57:44.981Z,99088.53
2023-01-26T01:58:49.469Z,99097.91
2023-01-26T01:59:55.191Z,99094.44
2023-01-26T02:00:59.013Z,99090.94
2023-01-26T02:02:01.499Z,99100.25
2023-01-26T02:03:14.789Z,99093.44
2023-01-26T02:04:17.050Z,99096.97
2023-01-26T02:05:25.909Z,99093.59
2023-01-26T02:06:34.846Z,99090.28
2023-01-26T02:07:37.702Z,99094.59
2023-01-26T02:08:42.329Z,99090.28
2023-01-26T02:10:05.169Z,99086.03
2023-01-26T02:11:10.650Z,99091.22
2023-01-26T02:12:13.404Z,99091.22
2023-01-26T02:13:16.699Z,99091.22
2023-01-26T02:14:18.605Z,99093.75
2023-01-26T02:15:21.603Z,99095.47
2023-01-26T02:16:23.495Z,99099.78
2023-01-26T02:17:26.376Z,99095.59
2023-01-26T02:18:28.352Z,99098.28
2023-01-26T02:19:34.240Z,99094.03
2023-01-26T02:20:42.507Z,99085.41
2023-01-26T02:21:48.670Z,99088.88
2023-01-26T02:22:56.588Z,99089.78
2023-01-26T02:24:08.485Z,99084.72
2023-01-26T02:25:20.456Z,99082.97
2023-01-26T02:26:25.970Z,99089.78
2023-01-26T02:27:28.549Z,99082.00
2023-01-26T02:28:32.817Z,99085.41
2023-01-26T02:29:34.736Z,99080.28
2023-01-26T02:30:37.594Z,99076.00
2023-01-26T02:31:41.324Z,99084.47
2023-01-26T02:32:43.258Z,99085.41
2023-01-26T02:33:46.192Z,99079.41
2023-01-26T02:34:48.135Z,99079.34
2023-01-26T02:35:51.054Z,99079.25
2023-01-26T02:36:57.668Z,99073.22
2023-01-26T02:38:00.617Z,99079.16
2023-01-26T02:39:16.550Z,99069.69
2023-01-26T02:40:27.054Z,99074.84
2023-01-26T02:41:49.310Z,99073.94
2023-01-26T02:42:54.265Z,99066.16
2023-01-26T02:43:57.064Z,99062.72
2023-01-26T02:44:59.063Z,99055.84
2023-01-26T02:46:01.875Z,99058.34
2023-01-26T02:47:11.211Z,99049.72
2023-01-26T02:48:14.427Z,99059.09
2023-01-26T02:49:34.610Z,99059.22
2023-01-26T02:50:36.462Z,99044.75
2023-01-26T02:51:38.315Z,99052.44
2023-01-26T02:52:41.108Z,99048.16
2023-01-26T02:53:55.459Z,99047.31
2023-01-26T02:55:16.642Z,99048.13
2023-01-26T02:56:19.849Z,99043.00
2023-01-26T02:57:22.994Z,99047.28
2023-01-26T02:58:26.654Z,99038.84
2023-01-26T02:59:28.508Z,99037.19
2023-01-26T03:00:34.807Z,99042.34
2023-01-26T03:01:38.007Z,99032.97
2023-01-26T03:02:41.891Z,99037.28
2023-01-26T03:03:45.004Z,99030.41
2023-01-26T03:04:50.141Z,99032.88
2023-01-26T03:05:52.178Z,99031.06
2023-01-26T03:06:55.415Z,99028.44
2023-01-26T03:07:57.524Z,99035.25
2023-01-26T03:09:07.474Z,99028.47
2023-01-26T03:10:10.910Z,99028.56
2023-01-26T03:11:14.050Z,99029.50
2023-01-26T03:12:15.930Z,99021.94
2023-01-26T03:13:23.006Z,99017.69
2023-01-26T03:14:27.468Z,99018.56
2023-01-26T03:15:43.177Z,99015.22
2023-01-26T03:16:47.479Z,99017.91
2023-01-26T03:17:49.343Z,99020.63
2023-01-26T03:19:09.954Z,99020.69
2023-01-26T03:20:30.714Z,99018.31
2023-01-26T03:21:51.507Z,99018.56
2023-01-26T03:23:12.176Z,99027.19
2023-01-26T03:24:34.116Z,99030.75
2023-01-26T03:25:57.665Z,99037.66
2023-01-26T03:27:20.755Z,99034.31
2023-01-26T03:28:24.894Z,99032.69
2023-01-26T03:29:28.412Z,99031.78
2023-01-26T03:30:34.353Z,99031.75
2023-01-26T03:31:36.189Z,99031.75
2023-01-26T03:32:39.639Z,99030.84
2023-01-26T03:33:45.906Z,99025.72
2023-01-26T03:34:48.775Z,99032.59
2023-01-26T03:35:53.621Z,99028.28
2023-01-26T03:36:57.916Z,99027.44
2023-01-26T03:38:01.609Z,99032.59
2023-01-26T03:39:41.151Z,99030.84
2023-01-26T03:41:01.771Z,99030.84
2023-01-26T03:42:23.018Z,99024.03
2023-01-26T03:43:44.946Z,99026.72
2023-01-26T03:45:05.304Z,99020.81
2023-01-26T03:46:27.017Z,99023.56
2023-01-26T03:47:47.731Z,99018.59
2023-01-26T03:49:08.018Z,99018.69
2023-01-26T03:50:29.295Z,99012.69
2023-01-26T03:51:49.684Z,99011.00
2023-01-26T03:53:09.737Z,99013.56
2023-01-26T03:54:30.582Z,99013.56
2023-01-26T03:55:50.923Z,99009.31
2023-01-26T03:56:53.771Z,99012.81
2023-01-26T03:57:55.561Z,99009.31
2023-01-26T03:59:08.086Z,99007.56
2023-01-26T04:00:11.934Z,99002.28
2023-01-26T04:01:20.122Z,99000.50
2023-01-26T04:02:42.911Z,99005.50
2023-01-26T04:04:06.168Z,98990.03
2023-01-26T04:05:27.343Z,98999.53
2023-01-26T04:06:51.846Z,98997.97
2023-01-26T04:08:12.150Z,98998.03
2023-01-26T04:09:15.200Z,98994.56
2023-01-26T04:10:17.238Z,99003.06
2023-01-26T04:11:20.164Z,98994.47
2023-01-26T04:12:22.649Z,98999.44
2023-01-26T04:13:54.235Z,98995.97
2023-01-26T04:15:26.689Z,98997.69
2023-01-26T04:16:47.198Z,98997.69
2023-01-26T04:18:08.460Z,98992.56
2023-01-26T04:19:28.700Z,98993.50
2023-01-26T04:20:49.910Z,98991.81
2023-01-26T04:21:52.842Z,98988.53
2023-01-26T04:22:55.512Z,98984.22
2023-01-26T04:23:59.537Z,98979.94
2023-01-26T04:25:01.482Z,98972.09
2023-01-26T04:26:06.562Z,98979.69
2023-01-26T04:27:08.704Z,98977.91
2023-01-26T04:28:14.112Z,98976.97
2023-01-26T04:29:16.608Z,98987.94
2023-01-26T04:30:21.784Z,98977.53
2023-01-26T04:31:24.082Z,98972.28
2023-01-26T04:32:27.468Z,98985.91
2023-01-26T04:33:30.378Z,98972.97
2023-01-26T04:34:33.905Z,98979.75
2023-01-26T04:35:38.432Z,98978.94
2023-01-26T04:36:41.674Z,98985.00
2023-01-26T04:37:43.881Z,98982.56
2023-01-26T04:38:46.771Z,98982.59
2023-01-26T04:39:51.479Z,98981.78
2023-01-26T04:40:54.951Z,98983.50
2023-01-26T04:41:57.020Z,98977.59
2023-01-26T04:43:01.350Z,98980.22
2023-01-26T04:44:03.337Z,98977.66
2023-01-26T04:45:06.956Z,98979.38
2023-01-26T04:46:11.617Z,98979.34
2023-01-26T04:47:15.989Z,98978.47
2023-01-26T04:48:18.258Z,98975.88
2023-01-26T04:49:21.532Z,98963.94
2023-01-26T04:50:23.310Z,98974.06
2023-01-26T04:51:26.583Z,98963.78
2023-01-26T04:52:29.609Z,98964.63
2023-01-26T04:53:31.927Z,98964.56
2023-01-26T04:54:34.694Z,98961.16
2023-01-26T04:55:36.554Z,98956.88
2023-01-26T04:56:40.197Z,98961.94
2023-01-26T04:57:42.069Z,98956.78
2023-01-26T04:58:46.378Z,98955.06
2023-01-26T04:59:49.588Z,98955.81
2023-01-26T05:00:53.885Z,98958.38
2023-01-26T05:01:58.227Z,98956.72
2023-01-26T05:03:00.022Z,98947.28
2023-01-26T05:04:06.540Z,98950.75
2023-01-26T05:05:10.178Z,98949.91
2023-01-26T05:06:13.434Z,98956.00
2023-01-26T05:07:16.344Z,98949.16
2023-01-26T05:08:22.621Z,98948.25
2023-01-26T05:09:24.751Z,98949.91
2023-01-26T05:10:43.933Z,98944.78
2023-01-26T05:12:19.352Z,98941.44
2023-01-26T05:13:42.077Z,98943.22
2023-01-26T05:14:52.512Z,98939.72
2023-01-26T05:16:07.753Z,98933.72
2023-01-26T05:17:23.016Z,98933.72
2023-01-26T05:18:43.844Z,98942.28
2023-01-26T05:20:07.966Z,98932.88
2023-01-26T05:21:15.633Z,98933.66
2023-01-26T05:22:23.205Z,98930.25
2023-01-26T05:23:45.956Z,98937.00
2023-01-26T05:25:01.205Z,98935.34
2023-01-26T05:26:12.728Z,98935.41
2023-01-26T05:27:36.992Z,98932.09
2023-01-26T05:28:39.961Z,98934.75
2023-01-26T05:29:41.747Z,98936.53
2023-01-26T05:30:44.523Z,98937.38
2023-01-26T05:31:46.675Z,98934.75
2023-01-26T05:32:50.949Z,98940.72
2023-01-26T05:33:52.787Z,98937.38
2023-01-26T05:34:58.798Z,98936.53
2023-01-26T05:36:05.583Z,98935.66
2023-01-26T05:37:08.724Z,98937.38
2023-01-26T05:38:12.128Z,98945.06
2023-01-26T05:39:14.891Z,98943.38
2023-01-26T05:40:18.055Z,98939.06
2023-01-26T05:41:20.265Z,98941.63
2023-01-26T05:42:43.941Z,98937.38
2023-01-26T05:44:18.968Z,98945.16
2023-01-26T05:45:25.295Z,98939.16
2023-01-26T05:46:31.864Z,98940.84
2023-01-26T05:47:33.768Z,98940.84
2023-01-26T05:48:38.229Z,98942.47
2023-01-26T05:49:42.805Z,98944.06
2023-01-26T05:50:49.365Z,98942.31
2023-01-26T05:51:54.864Z,98947.34
2023-01-26T05:53:00.471Z,98937.91
2023-01-26T05:54:02.392Z,98940.34
2023-01-26T05:55:06.296Z,98951.47
2023-01-26T05:56:09.766Z,98948.00
2023-01-26T05:57:17.465Z,98941.19
2023-01-26T05:58:25.717Z,98948.00
2023-01-26T05:59:27.507Z,98936.88
2023-01-26T06:00:30.286Z,98942.84
2023-01-26T06:01:39.961Z,98936.88
2023-01-26T06:02:48.395Z,98943.69
2023-01-26T06:03:52.537Z,98943.69
2023-01-26T06:04:55.595Z,98944.53
2023-01-26T06:05:58.913Z,98933.47
2023-01-26T06:07:15.887Z,98936.94
2023-01-26T06:08:23.819Z,98924.97
2023-01-26T06:09:37.927Z,98925.88
2023-01-26T06:10:47.113Z,98928.53
2023-01-26T06:12:15.352Z,98932.03
2023-01-26T06:13:28.127Z,98926.91
2023-01-26T06:14:40.804Z,98928.53
2023-01-26T06:15:43.647Z,98933.59
2023-01-26T06:16:47.572Z,98924.97
2023-01-26T06:17:50.775Z,98924.84
2023-01-26T06:18:55.538Z,98924.78
2023-01-26T06:19:58.536Z,98918.75
2023-01-26T06:21:01.363Z,98917.00
2023-01-26T06:22:04.323Z,98924.69
2023-01-26T06:23:11.846Z,98925.59
2023-01-26T06:24:15.476Z,98922.16
2023-01-26T06:25:18.243Z,98921.31
2023-01-26T06:26:20.012Z,98924.78
2023-01-26T06:27:24.125Z,98921.38
2023-01-26T06:28:28.251Z,98928.25
2023-01-26T06:29:30.098Z,98918.81
2023-01-26T06:30:34.491Z,98929.94
2023-01-26T06:31:40.533Z,98919.72
2023-01-26T06:32:43.671Z,98922.28
2023-01-26T06:33:46.044Z,98927.50
2023-01-26T06:34:52.757Z,98924.09
2023-01-26T06:35:55.853Z,98918.16
2023-01-26T06:36:58.752Z,98918.16
2023-01-26T06:38:06.455Z,98919.06
2023-01-26T06:39:10.483Z,98919.91
2023-01-26T06:40:13.992Z,98911.28
2023-01-26T06:41:16.615Z,98918.16
2023-01-26T06:42:19.995Z,98924.97
2023-01-26T06:43:22.047Z,98915.59
2023-01-26T06:44:24.879Z,98917.25
2023-01-26T06:45:26.662Z,98921.53
2023-01-26T06:46:29.662Z,98917.22
2023-01-26T06:47:31.473Z,98924.09
2023-01-26T06:48:36.913Z,98912.09
2023-01-26T06:49:39.474Z,98917.16
2023-01-26T06:50:45.723Z,98917.16
2023-01-26T06:51:53.260Z,98908.53
2023-01-26T06:52:57.567Z,98911.00
2023-01-26T06:54:18.546Z,98914.44
2023-01-26T06:55:41.694Z,98921.31
2023-01-26T06:57:09.366Z,98907.69
2023-01-26T06:58:32.383Z,98906.78
2023-01-26T06:59:43.350Z,98908.41
2023-01-26T07:01:04.683Z,98909.19
2023-01-26T07:02:17.493Z,98907.38
2023-01-26T07:03:19.273Z,98901.41
2023-01-26T07:04:22.010Z,98903.13
2023-01-26T07:05:23.898Z,98899.81
2023-01-26T07:06:28.009Z,98898.91
2023-01-26T07:07:30.756Z,98898.91
2023-01-26T07:08:32.882Z,98903.97
2023-01-26T07:09:35.627Z,98910.81
2023-01-26T07:10:38.750Z,98903.91
2023-01-26T07:11:42.006Z,98903.13
2023-01-26T07:12:45.487Z,98905.66
2023-01-26T07:13:48.405Z,98900.53
2023-01-26T07:14:52.034Z,98905.69
2023-01-26T07:16:00.554Z,98910.09
2023-01-26T07:17:03.672Z,98906.59
2023-01-26T07:18:05.711Z,98898.91
2023-01-26T07:19:08.716Z,98890.22
2023-01-26T07:20:11.696Z,98896.91
2023-01-26T07:21:18.216Z,98896.84
2023-01-26T07:22:21.320Z,98897.53
2023-01-26T07:23:24.179Z,98894.91
2023-01-26T07:24:26.444Z,98893.88
2023-01-26T07:25:29.461Z,98893.81
2023-01-26T07:26:32.236Z,98884.38
2023-01-26T07:27:35.041Z,98891.19
2023-01-26T07:28:40.107Z,98893.66
2023-01-26T07:29:43.072Z,98891.94
2023-01-26T07:30:45.998Z,98895.38
2023-01-26T07:31:48.923Z,98893.63
2023-01-26T07:32:51.846Z,98887.66
2023-01-26T07:33:54.684Z,98895.38
2023-01-26T07:34:56.460Z,98892.66
2023-01-26T07:36:00.034Z,98899.41
2023-01-26T07:37:02.521Z,98889.03
2023-01-26T07:38:06.758Z,98889.81
2023-01-26T07:39:09.671Z,98895.78
2023-01-26T07:40:13.163Z,98889.75
2023-01-26T07:41:16.086Z,98895.75
2023-01-26T07:42:17.937Z,98908.44
2023-01-26T07:43:35.165Z,98904.97
2023-01-26T07:44:38.017Z,98900.59
2023-01-26T07:45:39.746Z,98908.25
2023-01-26T07:46:44.694Z,98907.31
2023-01-26T07:47:48.078Z,98900.41
2023-01-26T07:48:50.838Z,98905.56
2023-01-26T07:49:53.656Z,98907.22
2023-01-26T07:50:58.278Z,98899.50
2023-01-26T07:52:02.018Z,98905.47
2023-01-26T07:53:09.094Z,98901.16
2023-01-26T07:54:12.791Z,98900.25
2023-01-26T07:55:16.186Z,98906.31
2023-01-26T07:56:20.540Z,98906.22
2023-01-26T07:57:22.327Z,98905.34
2023-01-26T07:58:25.524Z,98903.63
2023-01-26T07:59:28.912Z,98906.94
2023-01-26T08:00:30.698Z,98916.31
2023-01-26T08:01:33.554Z,98907.78
2023-01-26T08:02:35.675Z,98907.78
2023-01-26T08:03:38.808Z,98903.63
2023-01-26T08:04:41.781Z,98907.94
2023-01-26T08:05:43.669Z,98903.66
2023-01-26T08:06:46.498Z,98904.53
2023-01-26T08:07:48.377Z,98909.66
2023-01-26T08:08:53.699Z,98907.09
2023-01-26T08:09:55.490Z,98906.22
2023-01-26T08:11:00.415Z,98913.06
2023-01-26T08:12:03.200Z,98908.75
2023-01-26T08:13:04.949Z,98906.13
2023-01-26T08:14:07.703Z,98907.78
2023-01-26T08:15:11.166Z,98910.22
2023-01-26T08:16:13.973Z,98907.50
2023-01-26T08:17:17.406Z,98900.66
2023-01-26T08:18:20.788Z,98903.16
2023-01-26T08:19:23.763Z,98904.81
2023-01-26T08:20:25.572Z,98897.09
2023-01-26T08:21:28.955Z,98903.97
2023-01-26T08:22:31.734Z,98895.44
2023-01-26T08:23:34.542Z,98898.81
2023-01-26T08:24:38.940Z,98892.94
2023-01-26T08:25:40.756Z,98900.66
2023-01-26T08:26:43.498Z,98903.16
2023-01-26T08:27:45.717Z,98891.03
2023-01-26T08:28:48.901Z,98898.56
2023-01-26T08:29:52.357Z,98896.72
2023-01-26T08:30:54.257Z,98898.44
2023-01-26T08:31:57.024Z,98894.03
2023-01-26T08:32:59.803Z,98900.00
2023-01-26T08:34:03.007Z,98893.91
2023-01-26T08:35:06.547Z,98897.25
2023-01-26T08:36:10.889Z,98891.13
2023-01-26T08:37:13.715Z,98891.06
2023-01-26T08:38:15.483Z,98893.53
2023-01-26T08:39:18.397Z,98896.03
2023-01-26T08:40:21.828Z,98884.91
2023-01-26T08:41:24.583Z,98894.25
2023-01-26T08:42:26.346Z,98890.78
2023-01-26T08:43:29.189Z,98887.28
2023-01-26T08:44:31.104Z,98894.03
2023-01-26T08:45:34.002Z,98892.22
2023-01-26T08:46:36.890Z,98893.00
2023-01-26T08:47:39.656Z,98892.09
2023-01-26T08:48:42.455Z,98899.66
2023-01-26T08:49:44.309Z,98898.00
2023-01-26T08:50:47.132Z,98892.84
2023-01-26T08:51:49.867Z,98898.06
2023-01-26T08:52:51.795Z,98896.34
2023-01-26T08:53:54.768Z,98899.00
2023-01-26T08:54:56.551Z,98898.06
2023-01-26T08:56:03.797Z,98895.50
2023-01-26T08:57:05.724Z,98893.84
2023-01-26T08:58:08.444Z,98896.34
2023-01-26T08:59:11.409Z,98898.84
2023-01-26T09:00:16.655Z,98895.34
2023-01-26T09:01:19.720Z,98894.50
2023-01-26T09:02:22.899Z,98900.50
2023-01-26T09:03:25.752Z,98896.25
2023-01-26T09:04:27.606Z,98896.22
2023-01-26T09:05:33.758Z,98901.28
2023-01-26T09:06:36.866Z,98896.13
2023-01-26T09:07:38.603Z,98899.53
2023-01-26T09:08:41.562Z,98902.19
2023-01-26T09:09:43.436Z,98897.91
2023-01-26T09:10:46.174Z,98897.03
2023-01-26T09:11:50.513Z,98900.38
2023-01-26T09:12:53.269Z,98901.97
2023-01-26T09:13:56.623Z,98899.41
2023-01-26T09:14:59.561Z,98894.31
2023-01-26T09:16:03.611Z,98891.72
2023-01-26T09:17:06.399Z,98894.38
2023-01-26T09:18:10.121Z,98898.69
2023-01-26T09:19:12.924Z,98893.63
2023-01-26T09:20:15.744Z,98892.72
2023-01-26T09:21:17.682Z,98897.78
2023-01-26T09:22:20.539Z,98890.00
2023-01-26T09:23:22.313Z,98890.81
2023-01-26T09:24:25.395Z,98890.06
2023-01-26T09:25:28.150Z,98886.59
2023-01-26T09:26:31.327Z,98888.41
2023-01-26T09:27:36.157Z,98894.31
2023-01-26T09:28:38.126Z,98885.66
2023-01-26T09:29:40.910Z,98887.19
2023-01-26T09:30:43.874Z,98881.97
2023-01-26T09:31:45.731Z,98884.34
2023-01-26T09:32:48.533Z,98882.53
2023-01-26T09:33:51.109Z,98884.81
2023-01-26T09:34:53.822Z,98884.63
2023-01-26T09:35:56.569Z,98884.44
2023-01-26T09:36:59.330Z,98885.31
2023-01-26T09:38:02.114Z,98874.94
2023-01-26T09:39:05.261Z,98871.44
2023-01-26T09:40:17.268Z,98872.19
2023-01-26T09:50:57.658Z,98852.31
2023-01-26T09:52:04.362Z,98846.94
2023-01-26T09:53:10.875Z,98857.72
2023-01-26T09:54:26.417Z,98853.03
2023-01-26T09:55:30.310Z,98856.97
2023-01-26T09:56:32.953Z,98855.72
2023-01-26T09:57:39.153Z,98851.81
2023-01-26T09:58:42.799Z,98857.44
2023-01-26T09:59:48.437Z,98852.72
2023-01-26T10:00:53.357Z,98860.09
2023-01-26T10:02:00.367Z,98863.41
2023-01-26T10:03:11.255Z,98851.53
2023-01-26T10:04:18.755Z,98856.69
2023-01-26T10:05:27.316Z,98852.50
2023-01-26T10:06:32.207Z,98854.25
2023-01-26T10:07:45.271Z,98852.50
2023-01-26T10:08:48.030Z,98848.97
2023-01-26T10:09:52.485Z,98853.06
2023-01-26T10:10:57.402Z,98850.22
2023-01-26T10:12:03.130Z,98849.25
2023-01-26T10:13:06.536Z,98854.25
2023-01-26T10:14:13.743Z,98854.84
2023-01-26T10:15:24.582Z,98853.03
2023-01-26T10:16:27.358Z,98855.50
2023-01-26T10:17:33.340Z,98844.28
2023-01-26T10:18:41.844Z,98849.28
2023-01-26T10:19:46.189Z,98846.47
2023-01-26T10:20:52.079Z,98849.75
2023-01-26T10:21:56.640Z,98847.81
2023-01-26T10:23:02.762Z,98840.91
2023-01-26T10:24:06.787Z,98840.91
2023-01-26T10:25:15.888Z,98839.09
2023-01-26T10:26:20.354Z,98839.75
2023-01-26T10:27:23.729Z,98837.69
2023-01-26T10:28:28.291Z,98837.28
2023-01-26T10:29:31.063Z,98827.56
2023-01-26T10:30:33.052Z,98836.66
2023-01-26T10:31:36.561Z,98833.75
2023-01-26T10:32:39.071Z,98829.91
2023-01-26T10:33:46.037Z,98834.06
2023-01-26T10:34:50.773Z,98832.25
2023-01-26T10:35:53.748Z,98830.56
2023-01-26T10:37:03.654Z,98831.41
2023-01-26T10:38:27.569Z,98827.91
2023-01-26T10:39:30.367Z,98837.31
2023-01-26T10:40:43.621Z,98833.91
2023-01-26T10:42:00.135Z,98833.91
2023-01-26T10:43:01.978Z,98829.75
2023-01-26T10:44:19.345Z,98834.97
2023-01-26T10:45:27.234Z,98836.91
2023-01-26T10:46:33.032Z,98838.81
2023-01-26T10:47:35.883Z,98826.91
2023-01-26T10:48:37.751Z,98829.50
2023-01-26T10:49:40.583Z,98826.97
2023-01-26T10:50:42.514Z,98826.97
2023-01-26T10:51:47.277Z,98819.91
2023-01-26T10:52:58.981Z,98824.72
2023-01-26T10:54:22.129Z,98817.00
2023-01-26T10:55:25.151Z,98817.75
2023-01-26T10:56:28.175Z,98812.50
2023-01-26T10:57:32.670Z,98817.56
2023-01-26T10:58:43.463Z,98815.75
2023-01-26T10:59:51.447Z,98811.41
2023-01-26T11:00:57.438Z,98814.66
2023-01-26T11:02:01.630Z,98816.97
2023-01-26T11:03:07.924Z,98814.97
2023-01-26T11:04:14.696Z,98815.47
2023-01-26T11:05:22.781Z,98811.06
2023-01-26T11:06:28.140Z,98808.28
2023-01-26T11:07:34.832Z,98814.22
2023-01-26T11:09:10.070Z,98808.56
2023-01-26T11:10:25.999Z,98804.56
2023-01-26T11:11:31.059Z,98809.91
2023-01-26T11:12:33.893Z,98804.75
2023-01-26T11:13:36.866Z,98802.06
2023-01-26T11:14:38.953Z,98805.31
2023-01-26T11:15:43.937Z,98801.66
2023-01-26T11:16:50.743Z,98808.56
2023-01-26T11:17:58.591Z,98809.47
2023-01-26T11:19:04.702Z,98795.97
2023-01-26T11:20:26.901Z,98800.41
2023-01-26T11:21:32.327Z,98796.91
2023-01-26T11:22:38.492Z,98792.56
2023-01-26T11:23:49.849Z,98795.91
2023-01-26T11:25:01.832Z,98792.22
2023-01-26T11:26:29.524Z,98791.31
2023-01-26T11:27:42.184Z,98796.25
2023-01-26T11:28:53.877Z,98791.72
2023-01-26T11:30:28.270Z,98787.94
2023-01-26T11:31:41.735Z,98787.53
2023-01-26T11:32:51.081Z,98786.44
2023-01-26T11:34:02.038Z,98784.50
2023-01-26T11:35:13.650Z,98780.09
2023-01-26T11:36:25.995Z,98787.84
2023-01-26T11:37:41.926Z,98782.56
2023-01-26T11:38:47.533Z,98780.72
2023-01-26T11:39:56.356Z,98777.97
2023-01-26T11:41:04.998Z,98776.13
2023-01-26T11:42:18.363Z,98771.88
2023-01-26T11:43:46.365Z,98769.19
2023-01-26T11:44:59.019Z,98771.63
2023-01-26T11:46:21.241Z,98767.13
2023-01-26T11:47:36.447Z,98764.53
2023-01-26T11:48:47.738Z,98762.88
2023-01-26T11:50:11.066Z,98761.53
2023-01-26T11:51:21.906Z,98755.63
2023-01-26T11:52:30.393Z,98760.16
2023-01-26T11:53:43.336Z,98753.41
2023-01-26T11:55:08.758Z,98759.47
2023-01-26T11:56:20.733Z,98753.47
2023-01-26T11:57:28.777Z,98758.75
2023-01-26T11:58:33.577Z,98749.34
2023-01-26T11:59:39.114Z,98751.81
2023-01-26T12:00:43.870Z,98754.16
2023-01-26T12:01:50.262Z,98746.03
2023-01-26T12:02:57.713Z,98740.69
2023-01-26T12:04:00.746Z,98739.59
2023-01-26T12:05:05.983Z,98747.25
2023-01-26T12:06:14.410Z,98737.03
2023-01-26T12:07:20.862Z,98734.59
2023-01-26T12:08:27.669Z,98740.59
2023-01-26T12:09:36.619Z,98734.75
2023-01-26T12:10:48.103Z,98733.22
2023-01-26T12:11:54.481Z,98733.31
2023-01-26T12:13:00.797Z,98734.31
2023-01-26T12:14:09.263Z,98736.22
2023-01-26T12:15:14.968Z,98734.81
2023-01-26T12:16:21.665Z,98735.03
2023-01-26T12:17:43.197Z,98729.03
2023-01-26T12:19:01.846Z,98729.84
2023-01-26T12:20:26.323Z,98724.75
2023-01-26T12:21:30.516Z,98716.09
2023-01-26T12:22:35.227Z,98716.84
2023-01-26T12:23:48.308Z,98720.16
2023-01-26T12:26:20.470Z,98719.41
2023-01-26T12:27:26.816Z,98714.34
2023-01-26T12:28:34.049Z,98719.41
2023-01-26T12:29:41.045Z,98721.00
2023-01-26T12:30:49.313Z,98715.66
2023-01-26T12:31:57.684Z,98716.56
2023-01-26T12:33:00.654Z,98721.91
2023-01-26T12:34:03.568Z,98716.84
2023-01-26T12:35:10.336Z,98717.00
2023-01-26T12:36:25.457Z,98714.72
2023-01-26T12:37:48.379Z,98708.03
2023-01-26T12:39:03.580Z,98716.72
2023-01-26T12:40:16.691Z,98703.13
2023-01-26T12:41:30.619Z,98706.66
2023-01-26T12:42:40.701Z,98708.31
2023-01-26T12:43:52.871Z,98710.63
2023-01-26T12:45:00.027Z,98706.84
2023-01-26T12:46:03.996Z,98703.91
2023-01-26T12:47:12.644Z,98702.81
2023-01-26T12:48:17.758Z,98702.06
2023-01-26T12:49:23.606Z,98700.50
2023-01-26T12:50:28.551Z,98702.16
2023-01-26T12:51:34.636Z,98701.06
2023-01-26T12:52:43.348Z,98693.78
2023-01-26T12:53:51.744Z,98705.44
2023-01-26T12:55:00.187Z,98694.81
2023-01-26T12:56:09.092Z,98697.22
2023-01-26T12:57:16.081Z,98694.47
2023-01-26T12:58:22.011Z,98702.13
2023-01-26T12:59:46.750Z,98694.47
2023-01-26T13:00:55.914Z,98696.56
2023-01-26T13:01:59.267Z,98695.72
2023-01-26T13:03:05.535Z,98688.91
2023-01-26T13:04:09.680Z,98692.41
2023-01-26T13:05:25.279Z,98689.94
2023-01-26T13:06:29.571Z,98686.78
2023-01-26T13:07:33.878Z,98688.81
2023-01-26T13:08:54.759Z,98693.56
2023-01-26T13:10:20.462Z,98701.22
2023-01-26T13:11:44.779Z,98693.91
2023-01-26T13:12:50.933Z,98694.00
2023-01-26T13:14:30.715Z,98692.41